createdAt,value
2023-04-20T00:00:11.634Z,81.19
2023-04-20T00:02:33.327Z,81.97
2023-04-20T00:04:54.946Z,81.58
2023-04-20T00:07:16.803Z,81.11
2023-04-20T00:09:38.512Z,80.32
2023-04-20T00:11:59.956Z,81.72
2023-04-20T00:14:21.440Z,80.59
2023-04-20T00:16:43.016Z,80.81
2023-04-20T00:19:04.455Z,79.74
2023-04-20T00:21:26.199Z,81.83
2023-04-20T00:23:47.619Z,80.46
2023-04-20T00:26:09.092Z,80.33
2023-04-20T00:28:31.170Z,79.31
2023-04-20T00:30:52.661Z,79.62
2023-04-20T00:33:14.101Z,80.28
2023-04-20T00:35:35.637Z,81.36
2023-04-20T00:37:57.112Z,82.59
2023-04-20T00:40:18.845Z,81.57
2023-04-20T00:42:41.477Z,82.63
2023-04-20T00:45:03.828Z,83.08
2023-04-20T00:47:25.727Z,84.04
2023-04-20T00:49:47.811Z,84.79
2023-04-20T00:52:09.425Z,85.21
2023-04-20T00:54:31.963Z,84.68
2023-04-20T00:56:54.520Z,85.13
2023-04-20T00:59:16.705Z,85.81
2023-04-20T01:01:38.469Z,85.69
2023-04-20T01:04:00.130Z,85.81
2023-04-20T01:06:21.804Z,85.07
2023-04-20T01:08:48.482Z,84.52
2023-04-20T01:11:09.997Z,82.66
2023-04-20T01:13:31.491Z,84.38
2023-04-20T01:15:53.027Z,84.82
2023-04-20T01:18:15.370Z,86.50
2023-04-20T01:20:37.516Z,85.68
2023-04-20T01:22:59.030Z,84.64
2023-04-20T01:25:21.059Z,85.60
2023-04-20T01:27:43.025Z,85.06
2023-04-20T01:30:05.080Z,87.82
2023-04-20T01:32:26.590Z,86.64
2023-04-20T01:34:48.229Z,86.27
2023-04-20T01:37:09.732Z,86.13
2023-04-20T01:39:31.322Z,86.58
2023-04-20T01:41:52.814Z,85.44
2023-04-20T01:44:14.271Z,86.54
2023-04-20T01:46:39.919Z,86.59
2023-04-20T01:49:01.439Z,85.22
2023-04-20T01:51:22.906Z,87.17
2023-04-20T01:53:44.329Z,86.92
2023-04-20T01:56:06.036Z,84.84
2023-04-20T01:58:27.470Z,85.06
2023-04-20T02:00:49.179Z,86.23
2023-04-20T02:03:11.156Z,86.62
2023-04-20T02:05:32.775Z,87.76
2023-04-20T02:07:54.190Z,86.30
2023-04-20T02:10:15.755Z,87.63
2023-04-20T02:12:37.207Z,87.89
2023-04-20T02:14:58.668Z,87.80
2023-04-20T02:17:20.196Z,87.50
2023-04-20T02:19:41.745Z,87.71
2023-04-20T02:22:03.511Z,89.14
2023-04-20T02:24:25.040Z,88.32
2023-04-20T02:26:46.475Z,87.86
2023-04-20T02:29:07.958Z,89.12
2023-04-20T02:31:29.421Z,88.55
2023-04-20T02:33:51.502Z,89.56
2023-04-20T02:36:13.075Z,89.98
2023-04-20T02:38:34.526Z,90.25
2023-04-20T02:40:56.084Z,88.51
2023-04-20T02:43:17.491Z,89.22
2023-04-20T02:45:39.096Z,88.46
2023-04-20T02:48:00.808Z,88.67
2023-04-20T02:50:22.316Z,87.99
2023-04-20T02:52:43.761Z,87.19
2023-04-20T02:55:06.014Z,86.30
2023-04-20T02:57:27.514Z,85.14
2023-04-20T02:59:48.962Z,86.62
2023-04-20T03:02:10.572Z,87.24
2023-04-20T03:04:32.263Z,86.63
2023-04-20T03:06:53.800Z,86.35
2023-04-20T03:09:15.477Z,86.86
2023-04-20T03:11:37.148Z,87.12
2023-04-20T03:13:58.599Z,86.73
2023-04-20T03:16:20.105Z,85.55
2023-04-20T03:18:41.625Z,84.80
2023-04-20T03:21:03.119Z,83.72
2023-04-20T03:23:24.631Z,84.60
2023-04-20T03:25:46.454Z,85.13
2023-04-20T03:28:07.885Z,85.81
2023-04-20T03:30:29.433Z,86.01
2023-04-20T03:32:50.959Z,85.01
2023-04-20T03:35:12.433Z,85.65
2023-04-20T03:37:33.940Z,84.67
2023-04-20T03:39:55.489Z,84.50
2023-04-20T03:42:16.905Z,84.25
2023-04-20T03:44:38.385Z,82.73
2023-04-20T03:46:59.837Z,82.06
2023-04-20T03:49:25.481Z,82.63
2023-04-20T03:51:46.897Z,83.18
2023-04-20T03:54:08.389Z,82.99
2023-04-20T03:56:29.822Z,82.69
2023-04-20T03:58:51.267Z,82.76
2023-04-20T04:01:13.448Z,83.64
2023-04-20T04:03:36.320Z,82.25
2023-04-20T04:05:58.375Z,82.68
2023-04-20T04:08:19.824Z,83.23
2023-04-20T04:10:41.306Z,82.64
2023-04-20T04:13:02.720Z,83.20
2023-04-20T04:15:24.289Z,84.60
2023-04-20T04:17:46.165Z,83.91
2023-04-20T04:20:11.495Z,84.88
2023-04-20T04:22:32.923Z,84.31
2023-04-20T04:24:54.540Z,83.04
2023-04-20T04:27:16.268Z,82.86
2023-04-20T04:29:38.745Z,83.92
2023-04-20T04:32:00.564Z,83.07
2023-04-20T04:34:24.040Z,83.15
2023-04-20T04:36:46.036Z,84.66
2023-04-20T04:39:07.504Z,85.91
2023-04-20T04:41:28.924Z,84.91
2023-04-20T04:43:51.544Z,84.70
2023-04-20T04:46:14.524Z,85.90
2023-04-20T04:48:40.775Z,84.39
2023-04-20T04:51:02.741Z,83.88
2023-04-20T04:53:24.205Z,86.35
2023-04-20T04:55:46.536Z,86.45
2023-04-20T04:58:08.053Z,87.44
2023-04-20T05:00:29.588Z,87.17
2023-04-20T05:02:53.065Z,87.95
2023-04-20T05:05:14.916Z,86.91
2023-04-20T05:07:36.354Z,87.01
2023-04-20T05:09:57.865Z,86.13
2023-04-20T05:12:19.558Z,86.42
2023-04-20T05:14:41.029Z,86.63
2023-04-20T05:17:02.708Z,84.76
2023-04-20T05:19:24.215Z,86.11
2023-04-20T05:21:45.869Z,84.81
2023-04-20T05:24:07.415Z,85.54
2023-04-20T05:26:28.874Z,85.17
2023-04-20T05:28:51.250Z,85.12
2023-04-20T05:31:12.746Z,84.94
2023-04-20T05:33:34.318Z,85.71
2023-04-20T05:35:57.249Z,86.48
2023-04-20T05:38:18.702Z,86.96
2023-04-20T05:40:40.205Z,85.94
2023-04-20T05:43:01.737Z,86.51
2023-04-20T05:45:23.313Z,87.45
2023-04-20T05:47:53.590Z,88.78
2023-04-20T05:50:15.243Z,87.48
2023-04-20T05:52:36.785Z,83.96
2023-04-20T05:54:59.526Z,85.11
2023-04-20T05:57:21.882Z,84.99
2023-04-20T05:59:43.759Z,84.88
2023-04-20T06:02:06.131Z,83.37
2023-04-20T06:04:28.376Z,83.36
2023-04-20T06:06:51.113Z,83.18
2023-04-20T06:09:12.580Z,82.52
2023-04-20T06:11:34.534Z,81.90
2023-04-20T06:13:56.039Z,82.49
2023-04-20T06:16:17.489Z,82.55
2023-04-20T06:18:38.970Z,82.93
2023-04-20T06:21:01.747Z,84.81
2023-04-20T06:23:23.235Z,81.00
2023-04-20T06:25:44.670Z,83.59
2023-04-20T06:28:06.739Z,83.24
2023-04-20T06:30:28.304Z,80.36
2023-04-20T06:32:49.889Z,79.64
2023-04-20T06:35:11.476Z,78.95
2023-04-20T06:37:33.036Z,75.81
2023-04-20T06:39:57.682Z,75.13
2023-04-20T06:42:19.130Z,77.64
2023-04-20T06:44:41.173Z,76.43
2023-04-20T06:47:02.880Z,76.04
2023-04-20T06:49:24.443Z,74.61
2023-04-20T06:51:45.880Z,76.88
2023-04-20T06:54:07.546Z,75.56
2023-04-20T06:56:28.972Z,73.78
2023-04-20T06:58:50.461Z,73.43
2023-04-20T07:01:11.896Z,70.93
2023-04-20T07:03:33.918Z,69.48
2023-04-20T07:05:55.607Z,68.00
2023-04-20T07:08:17.141Z,69.08
2023-04-20T07:10:38.562Z,68.50
2023-04-20T07:13:00.007Z,66.18
2023-04-20T07:15:22.996Z,66.40
2023-04-20T07:17:44.539Z,63.77
2023-04-20T07:20:10.032Z,64.54
2023-04-20T07:22:32.567Z,66.31
2023-04-20T07:24:54.037Z,66.27
2023-04-20T07:27:15.746Z,67.28
2023-04-20T07:29:37.175Z,66.44
2023-04-20T07:31:58.632Z,65.48
2023-04-20T07:34:20.424Z,64.47
2023-04-20T07:36:42.071Z,63.62
2023-04-20T07:39:04.279Z,63.51
2023-04-20T07:41:25.809Z,61.33
2023-04-20T07:43:47.321Z,60.57
2023-04-20T07:46:08.822Z,60.06
2023-04-20T07:48:30.405Z,59.39
2023-04-20T07:50:51.826Z,57.05
2023-04-20T07:53:14.176Z,56.48
2023-04-20T07:55:35.954Z,56.63
2023-04-20T07:57:57.892Z,56.48
2023-04-20T08:00:19.918Z,56.61
2023-04-20T08:02:41.884Z,56.83
2023-04-20T08:05:04.036Z,57.11
2023-04-20T08:07:25.708Z,56.85
2023-04-20T08:09:47.122Z,56.49
2023-04-20T08:12:08.757Z,57.43
2023-04-20T08:14:30.246Z,55.54
2023-04-20T08:16:51.777Z,54.43
2023-04-20T08:21:40.888Z,55.31
2023-04-20T08:24:04.656Z,54.52
2023-04-20T08:26:27.514Z,54.70
2023-04-20T08:28:48.922Z,54.80
2023-04-20T08:31:10.979Z,53.55
2023-04-20T08:33:32.542Z,53.74
2023-04-20T08:35:53.991Z,53.86
2023-04-20T08:38:18.086Z,54.67
2023-04-20T08:40:42.360Z,55.68
2023-04-20T08:43:04.081Z,58.51
2023-04-20T08:45:26.613Z,55.13
2023-04-20T08:47:49.652Z,56.56
2023-04-20T08:50:11.231Z,54.46
2023-04-20T08:52:33.416Z,53.69
2023-04-20T08:54:57.587Z,52.01
2023-04-20T08:57:19.488Z,52.27
2023-04-20T08:59:41.027Z,52.75
2023-04-20T09:02:12.845Z,52.29
2023-04-20T09:04:34.682Z,50.99
2023-04-20T09:06:56.819Z,50.92
2023-04-20T09:09:19.843Z,50.38
2023-04-20T09:11:41.736Z,50.92
2023-04-20T09:14:10.165Z,50.51
2023-04-20T09:16:31.737Z,51.37
2023-04-20T09:18:57.203Z,51.28
2023-04-20T09:21:18.646Z,50.52
2023-04-20T09:23:40.781Z,51.63
2023-04-20T09:26:02.271Z,50.96
2023-04-20T09:28:23.688Z,51.36
2023-04-20T09:30:47.280Z,49.75
2023-04-20T09:33:10.941Z,50.19
2023-04-20T09:35:32.580Z,52.09
2023-04-20T09:37:54.438Z,49.03
2023-04-20T09:40:16.560Z,49.43
2023-04-20T09:42:39.560Z,50.49
2023-04-20T09:45:01.816Z,50.80
2023-04-20T09:47:25.966Z,50.78
2023-04-20T09:49:47.749Z,50.58
2023-04-20T09:52:09.271Z,50.80
2023-04-20T09:54:31.664Z,49.26
2023-04-20T09:56:54.374Z,48.73
2023-04-20T09:59:19.145Z,48.81
2023-04-20T10:01:41.001Z,49.95
2023-04-20T10:04:08.277Z,47.96
2023-04-20T10:06:33.138Z,50.79
2023-04-20T10:08:55.146Z,51.30
2023-04-20T10:11:49.059Z,49.15
2023-04-20T10:14:19.947Z,49.40
2023-04-20T10:16:42.038Z,47.74
2023-04-20T10:19:06.300Z,47.06
2023-04-20T10:21:32.401Z,46.50
2023-04-20T10:23:54.361Z,46.07
2023-04-20T10:26:16.648Z,44.26
2023-04-20T10:28:42.744Z,46.18
2023-04-20T10:31:04.314Z,44.04
2023-04-20T10:33:25.788Z,44.42
2023-04-20T10:35:54.926Z,44.64
2023-04-20T10:38:36.874Z,43.73
2023-04-20T10:41:09.225Z,43.63
2023-04-20T10:43:30.657Z,44.31
2023-04-20T10:45:52.381Z,44.40
2023-04-20T10:48:15.469Z,42.75
2023-04-20T10:50:39.070Z,42.47
2023-04-20T10:53:00.629Z,42.97
2023-04-20T10:55:24.860Z,44.07
2023-04-20T10:57:46.437Z,43.16
2023-04-20T11:00:34.071Z,42.04
2023-04-20T11:02:57.415Z,42.24
2023-04-20T11:05:20.365Z,41.18
2023-04-20T11:07:52.655Z,40.67
2023-04-20T11:10:14.091Z,41.07
2023-04-20T11:12:39.795Z,41.69
2023-04-20T11:15:03.130Z,41.12
2023-04-20T11:17:35.334Z,43.66
2023-04-20T11:20:10.438Z,42.56
2023-04-20T11:22:32.358Z,42.72
2023-04-20T11:25:05.546Z,42.23
2023-04-20T11:27:27.370Z,42.31
2023-04-20T11:29:57.891Z,42.18
2023-04-20T11:32:19.663Z,41.50
2023-04-20T11:34:41.325Z,42.04
2023-04-20T11:37:07.449Z,42.46
2023-04-20T11:39:32.510Z,43.61
2023-04-20T11:41:54.409Z,44.33
2023-04-20T11:44:16.064Z,45.29
2023-04-20T11:46:37.753Z,45.25
2023-04-20T11:51:29.436Z,47.55
2023-04-20T11:53:50.860Z,47.40
2023-04-20T11:56:12.342Z,47.99
2023-04-20T11:58:33.864Z,47.76
2023-04-20T12:00:55.327Z,48.22
2023-04-20T12:03:17.179Z,49.17
2023-04-20T12:05:38.829Z,48.94
2023-04-20T12:08:00.304Z,48.58
2023-04-20T12:10:21.943Z,48.79
2023-04-20T12:12:43.424Z,49.65
2023-04-20T12:15:05.444Z,48.88
2023-04-20T12:17:27.008Z,48.92
2023-04-20T12:19:48.531Z,49.03
2023-04-20T12:22:10.108Z,48.74
2023-04-20T12:24:31.528Z,49.23
2023-04-20T12:26:53.016Z,50.71
2023-04-20T12:29:14.698Z,51.71
2023-04-20T12:31:36.542Z,53.68
2023-04-20T12:33:58.030Z,54.15
2023-04-20T12:36:19.507Z,55.75
2023-04-20T12:38:41.041Z,55.59
2023-04-20T12:41:04.268Z,56.70
2023-04-20T12:43:25.804Z,57.25
2023-04-20T12:45:48.435Z,58.19
2023-04-20T12:48:09.963Z,59.19
2023-04-20T12:50:31.483Z,58.38
2023-04-20T12:52:55.483Z,58.67
2023-04-20T12:55:16.974Z,59.17
2023-04-20T12:57:38.438Z,59.37
2023-04-20T13:00:02.774Z,58.32
2023-04-20T13:02:24.554Z,57.96
2023-04-20T13:04:46.979Z,56.25
2023-04-20T13:07:08.765Z,54.72
2023-04-20T13:09:30.263Z,53.80
2023-04-20T13:11:51.686Z,54.07
2023-04-20T13:14:13.259Z,54.23
2023-04-20T13:16:34.822Z,53.15
2023-04-20T13:18:56.624Z,50.97
2023-04-20T13:21:18.083Z,51.61
2023-04-20T13:23:40.113Z,51.23
2023-04-20T13:26:01.815Z,51.52
2023-04-20T13:28:24.541Z,50.63
2023-04-20T13:30:46.042Z,51.47
2023-04-20T13:33:07.648Z,51.56
2023-04-20T13:35:29.500Z,52.25
2023-04-20T13:37:51.205Z,53.33
2023-04-20T13:40:12.915Z,54.16
2023-04-20T13:42:34.599Z,54.63
2023-04-20T13:44:56.181Z,55.22
2023-04-20T13:47:19.490Z,55.47
2023-04-20T13:49:41.064Z,57.15
2023-04-20T13:52:02.681Z,57.87
2023-04-20T13:54:24.126Z,59.12
2023-04-20T13:56:45.636Z,62.04
2023-04-20T13:59:07.229Z,62.19
2023-04-20T14:01:28.786Z,62.91
2023-04-20T14:03:52.208Z,63.00
2023-04-20T14:06:13.693Z,63.53
2023-04-20T14:08:35.153Z,63.87
2023-04-20T14:10:56.990Z,63.25
2023-04-20T14:13:18.575Z,62.67
2023-04-20T14:15:40.304Z,63.13
2023-04-20T14:18:01.851Z,62.62
2023-04-20T14:20:23.577Z,63.66
2023-04-20T14:22:45.039Z,64.46
2023-04-20T14:25:07.183Z,64.25
2023-04-20T14:27:28.649Z,63.46
2023-04-20T14:29:50.884Z,64.41
2023-04-20T14:32:12.820Z,65.58
2023-04-20T14:34:34.288Z,65.15
2023-04-20T14:36:55.771Z,66.16
2023-04-20T14:39:19.946Z,64.90
2023-04-20T14:41:41.398Z,65.31
2023-04-20T14:44:02.939Z,64.02
2023-04-20T14:46:24.533Z,64.69
2023-04-20T14:48:46.517Z,65.26
2023-04-20T14:51:07.985Z,65.18
2023-04-20T14:53:30.536Z,65.63
2023-04-20T14:55:52.991Z,64.24
2023-04-20T14:58:18.332Z,64.02
2023-04-20T15:00:39.834Z,64.44
2023-04-20T15:03:01.404Z,65.05
2023-04-20T15:05:25.043Z,65.32
2023-04-20T15:07:50.584Z,65.32
2023-04-20T15:10:12.592Z,65.47
2023-04-20T15:12:34.030Z,64.17
2023-04-20T15:14:55.500Z,65.45
2023-04-20T15:17:16.980Z,63.75
2023-04-20T15:19:40.462Z,62.90
2023-04-20T15:22:01.969Z,62.24
2023-04-20T15:24:23.420Z,62.65
2023-04-20T15:26:44.861Z,63.39
2023-04-20T15:29:06.469Z,63.87
2023-04-20T15:31:28.007Z,63.43
2023-04-20T15:33:49.718Z,64.07
2023-04-20T15:36:11.141Z,63.17
2023-04-20T15:38:32.658Z,64.19
2023-04-20T15:40:55.308Z,63.09
2023-04-20T15:43:16.891Z,64.66
2023-04-20T15:45:38.370Z,62.51
2023-04-20T15:48:01.044Z,62.78
2023-04-20T15:50:23.342Z,61.79
2023-04-20T15:52:45.648Z,63.59
2023-04-20T15:55:10.023Z,65.36
2023-04-20T15:57:31.520Z,64.44
2023-04-20T15:59:52.956Z,62.61
2023-04-20T16:02:14.524Z,63.16
2023-04-20T16:04:36.326Z,63.91
2023-04-20T16:06:57.884Z,63.34
2023-04-20T16:09:19.964Z,62.45
2023-04-20T16:11:42.760Z,63.11
2023-04-20T16:14:04.236Z,62.49
2023-04-20T16:16:25.881Z,62.56
2023-04-20T16:18:48.220Z,64.13
2023-04-20T16:21:09.808Z,63.66
2023-04-20T16:23:31.398Z,64.71
2023-04-20T16:25:52.890Z,65.99
2023-04-20T16:28:14.447Z,65.66
2023-04-20T16:30:38.735Z,65.53
2023-04-20T16:33:00.354Z,65.61
2023-04-20T16:35:22.036Z,65.18
2023-04-20T16:37:43.987Z,66.58
2023-04-20T16:40:06.131Z,66.53
2023-04-20T16:42:27.827Z,66.17
2023-04-20T16:44:49.333Z,67.89
2023-04-20T16:47:10.986Z,69.13
2023-04-20T16:49:32.715Z,70.67
2023-04-20T16:51:54.291Z,72.69
2023-04-20T16:54:16.125Z,72.90
2023-04-20T16:56:38.584Z,72.69
2023-04-20T16:59:00.142Z,73.19
2023-04-20T17:01:21.698Z,74.01
2023-04-20T17:03:43.332Z,75.04
2023-04-20T17:06:07.537Z,76.67
2023-04-20T17:08:29.028Z,75.92
2023-04-20T17:10:50.557Z,75.97
2023-04-20T17:13:12.043Z,76.53
2023-04-20T17:15:33.529Z,77.09
2023-04-20T17:17:55.073Z,78.64
2023-04-20T17:20:16.500Z,79.65
2023-04-20T17:22:38.109Z,79.69
2023-04-20T17:25:01.299Z,80.29
2023-04-20T17:27:23.173Z,81.09
2023-04-20T17:29:45.138Z,81.16
2023-04-20T17:32:06.775Z,81.94
2023-04-20T17:34:28.279Z,82.43
2023-04-20T17:36:49.801Z,83.08
2023-04-20T17:39:11.381Z,82.26
2023-04-20T17:41:34.816Z,82.95
2023-04-20T17:43:56.301Z,81.84
2023-04-20T17:46:17.902Z,83.53
2023-04-20T17:48:39.442Z,83.54
2023-04-20T17:51:00.969Z,84.90
2023-04-20T17:53:22.481Z,86.22
2023-04-20T17:55:43.948Z,85.18
2023-04-20T17:58:05.395Z,84.84
2023-04-20T18:00:27.080Z,86.39
2023-04-20T18:02:48.636Z,86.46
2023-04-20T18:05:10.462Z,85.72
2023-04-20T18:07:31.920Z,86.26
2023-04-20T18:09:53.420Z,87.65
2023-04-20T18:12:14.883Z,87.73
2023-04-20T18:14:39.759Z,88.17
2023-04-20T18:17:01.212Z,88.26
2023-04-20T18:19:22.848Z,87.70
2023-04-20T18:21:44.669Z,87.32
2023-04-20T18:24:07.077Z,88.25
2023-04-20T18:26:28.621Z,89.18
2023-04-20T18:28:50.161Z,87.77
2023-04-20T18:31:12.174Z,88.45
2023-04-20T18:33:33.689Z,88.02
2023-04-20T18:35:55.176Z,88.66
2023-04-20T18:38:16.665Z,87.87
2023-04-20T18:40:38.216Z,88.26
2023-04-20T18:42:59.714Z,88.90
2023-04-20T18:45:23.417Z,89.37
2023-04-20T18:47:44.925Z,89.96
2023-04-20T18:50:07.002Z,89.37
2023-04-20T18:52:32.473Z,89.72
2023-04-20T18:54:55.405Z,88.84
2023-04-20T18:57:17.214Z,89.53
2023-04-20T18:59:38.716Z,88.72
2023-04-20T19:02:00.374Z,89.36
2023-04-20T19:04:22.300Z,89.42
2023-04-20T19:06:44.002Z,90.04
2023-04-20T19:09:07.833Z,91.30
2023-04-20T19:11:32.806Z,90.27
2023-04-20T19:13:54.469Z,90.66
2023-04-20T19:16:15.996Z,91.81
2023-04-20T19:18:38.247Z,91.67
2023-04-20T19:20:59.670Z,90.90
2023-04-20T19:23:22.142Z,90.26
2023-04-20T19:25:44.023Z,89.48
2023-04-20T19:28:08.105Z,89.46
2023-04-20T19:30:29.702Z,89.30
2023-04-20T19:32:51.229Z,89.12
2023-04-20T19:35:12.733Z,89.51
2023-04-20T19:37:34.283Z,90.32
2023-04-20T19:39:55.813Z,90.81
2023-04-20T19:42:18.578Z,90.54
2023-04-20T19:44:40.030Z,90.05
2023-04-20T19:47:01.595Z,89.72
2023-04-20T19:49:23.040Z,91.10
2023-04-20T19:51:44.584Z,90.43
2023-04-20T19:54:06.099Z,89.30
2023-04-20T19:56:27.567Z,89.33
2023-04-20T19:58:49.031Z,90.95
2023-04-20T20:01:10.724Z,90.07
2023-04-20T20:03:32.314Z,89.36
2023-04-20T20:05:53.983Z,90.11
2023-04-20T20:08:16.540Z,89.42
2023-04-20T20:10:38.001Z,89.98
2023-04-20T20:13:00.995Z,89.94
2023-04-20T20:15:22.454Z,89.43
2023-04-20T20:17:45.298Z,88.00
2023-04-20T20:20:07.342Z,88.61
2023-04-20T20:22:28.906Z,87.29
2023-04-20T20:24:52.204Z,86.90
2023-04-20T20:27:13.636Z,87.65
2023-04-20T20:29:35.150Z,87.59
2023-04-20T20:31:56.647Z,87.88
2023-04-20T20:34:18.190Z,88.83
2023-04-20T20:36:42.525Z,88.93
2023-04-20T20:39:05.171Z,88.72
2023-04-20T20:41:26.880Z,88.88
2023-04-20T20:43:49.902Z,89.58
2023-04-20T20:46:11.408Z,90.40
2023-04-20T20:48:32.900Z,91.40
2023-04-20T20:50:54.349Z,91.42
2023-04-20T20:53:17.530Z,91.31
2023-04-20T20:55:38.965Z,91.46
2023-04-20T20:58:00.602Z,93.30
2023-04-20T21:00:22.151Z,93.30
2023-04-20T21:02:43.673Z,94.27
2023-04-20T21:05:05.918Z,94.10
2023-04-20T21:07:27.400Z,95.00
2023-04-20T21:09:48.936Z,95.57
2023-04-20T21:12:10.374Z,94.63
2023-04-20T21:14:32.001Z,95.22
2023-04-20T21:16:53.941Z,95.02
2023-04-20T21:19:15.501Z,95.31
2023-04-20T21:21:36.984Z,95.12
2023-04-20T21:23:59.086Z,95.46
2023-04-20T21:26:20.666Z,95.23
2023-04-20T21:28:42.408Z,95.89
2023-04-20T21:31:03.867Z,95.54
2023-04-20T21:33:25.480Z,95.41
2023-04-20T21:35:47.032Z,95.72
2023-04-20T21:38:08.489Z,94.90
2023-04-20T21:40:29.991Z,95.22
2023-04-20T21:42:51.433Z,95.13
2023-04-20T21:45:12.910Z,93.84
2023-04-20T21:47:34.383Z,93.46
2023-04-20T21:49:55.931Z,93.23
2023-04-20T21:52:17.422Z,94.41
2023-04-20T21:54:40.851Z,93.19
2023-04-20T21:57:02.530Z,93.30
2023-04-20T21:59:24.058Z,93.38
2023-04-20T22:01:45.560Z,92.33
2023-04-20T22:04:07.451Z,92.78
2023-04-20T22:06:29.091Z,94.49
2023-04-20T22:08:50.765Z,93.69
2023-04-20T22:11:12.215Z,93.07
2023-04-20T22:13:34.610Z,92.56
2023-04-20T22:15:56.274Z,93.84
2023-04-20T22:18:18.965Z,93.54
2023-04-20T22:20:40.412Z,94.08
2023-04-20T22:23:01.925Z,94.53
2023-04-20T22:25:26.688Z,96.07
2023-04-20T22:27:48.145Z,94.88
2023-04-20T22:30:10.284Z,96.14
2023-04-20T22:32:31.915Z,95.93
2023-04-20T22:34:53.556Z,95.98
2023-04-20T22:37:15.153Z,95.51
2023-04-20T22:39:36.623Z,95.70
2023-04-20T22:41:58.104Z,94.89
2023-04-20T22:44:19.576Z,94.66
2023-04-20T22:46:41.574Z,95.42
2023-04-20T22:49:04.204Z,95.11
2023-04-20T22:51:25.995Z,94.50
2023-04-20T22:53:47.475Z,93.81
2023-04-20T22:56:08.997Z,94.18
2023-04-20T22:58:30.736Z,92.76
2023-04-20T23:00:52.194Z,92.52
2023-04-20T23:03:13.853Z,94.12
2023-04-20T23:05:35.422Z,94.96
2023-04-20T23:07:56.964Z,94.53
2023-04-20T23:10:19.014Z,94.63
2023-04-20T23:12:40.507Z,94.39
2023-04-20T23:15:02.166Z,94.10
2023-04-20T23:17:23.744Z,94.14
2023-04-20T23:19:45.924Z,94.04
2023-04-20T23:22:10.249Z,93.07
2023-04-20T23:24:31.685Z,92.11
2023-04-20T23:26:53.166Z,91.51
2023-04-20T23:29:14.615Z,91.00
2023-04-20T23:31:36.058Z,91.13
2023-04-20T23:33:57.534Z,89.58
2023-04-20T23:36:19.009Z,89.67
2023-04-20T23:38:40.969Z,89.98
2023-04-20T23:41:08.136Z,90.32
2023-04-20T23:43:29.612Z,90.89
2023-04-20T23:45:51.362Z,92.06
2023-04-20T23:48:12.871Z,91.78
2023-04-20T23:50:36.967Z,89.95
2023-04-20T23:52:58.666Z,89.29
2023-04-20T23:55:20.176Z,88.67
2023-04-20T23:57:41.684Z,88.61
